createdAt,value
2022-10-17T00:01:27.656Z,0.75
2022-10-17T00:03:57.886Z,1.20
2022-10-17T00:06:26.375Z,0.90
2022-10-17T00:08:55.063Z,0.90
2022-10-17T00:11:25.433Z,1.00
2022-10-17T00:13:56.859Z,0.80
2022-10-17T00:16:26.467Z,0.93
2022-10-17T00:18:55.263Z,1.20
2022-10-17T00:21:25.975Z,1.13
2022-10-17T00:23:54.594Z,1.20
2022-10-17T00:26:23.098Z,1.10
2022-10-17T00:28:53.138Z,1.60
2022-10-17T00:31:23.613Z,1.00
2022-10-17T00:33:53.050Z,1.15
2022-10-17T00:36:22.889Z,1.35
2022-10-17T00:38:54.623Z,1.60
2022-10-17T00:41:25.865Z,1.13
2022-10-17T00:43:57.559Z,1.00
2022-10-17T00:46:31.175Z,1.30
2022-10-17T00:51:35.317Z,1.00
2022-10-17T00:54:06.327Z,1.15
2022-10-17T00:56:35.983Z,1.10
2022-10-17T01:01:38.794Z,1.30
2022-10-17T01:04:07.318Z,1.30
2022-10-17T01:06:35.724Z,1.38
2022-10-17T01:09:05.734Z,1.15
2022-10-17T01:11:41.075Z,1.40
2022-10-17T01:14:19.547Z,1.48
2022-10-17T01:16:55.859Z,1.35
2022-10-17T01:19:44.403Z,1.52
2022-10-17T01:22:23.855Z,1.30
2022-10-17T01:25:13.392Z,1.25
2022-10-17T01:28:10.997Z,1.40
2022-10-17T01:31:00.951Z,1.50
2022-10-17T01:33:38.459Z,1.52
2022-10-17T01:36:12.582Z,1.35
2022-10-17T01:38:48.980Z,1.60
2022-10-17T01:41:26.872Z,1.75
2022-10-17T01:44:00.857Z,1.38
2022-10-17T01:49:04.745Z,1.42
2022-10-17T01:51:39.630Z,1.60
2022-10-17T01:54:14.774Z,1.27
2022-10-17T01:56:46.467Z,1.35
2022-10-17T01:59:19.472Z,1.20
2022-10-17T02:01:54.338Z,1.40
2022-10-17T02:04:23.074Z,1.98
2022-10-17T02:06:51.500Z,1.25
2022-10-17T02:09:22.818Z,1.40
2022-10-17T02:12:10.680Z,1.60
2022-10-17T02:14:50.920Z,1.50
2022-10-17T02:17:32.899Z,1.48
2022-10-17T02:20:11.775Z,1.70
2022-10-17T02:22:49.411Z,1.55
2022-10-17T02:25:28.314Z,1.40
2022-10-17T02:28:02.590Z,1.40
2022-10-17T02:30:35.380Z,1.80
2022-10-17T02:33:08.552Z,1.43
2022-10-17T02:35:41.446Z,1.40
2022-10-17T02:38:12.120Z,1.50
2022-10-17T02:40:42.288Z,1.70
2022-10-17T02:43:10.794Z,1.48
2022-10-17T02:45:40.395Z,1.38
2022-10-17T02:48:16.240Z,1.70
2022-10-17T02:50:53.995Z,1.40
2022-10-17T02:53:29.575Z,1.65
2022-10-17T02:56:03.174Z,1.55
2022-10-17T02:58:34.267Z,1.48
2022-10-17T03:01:02.765Z,1.50
2022-10-17T03:03:34.243Z,1.40
2022-10-17T03:06:02.764Z,1.45
2022-10-17T03:08:31.533Z,1.70
2022-10-17T03:11:00.276Z,1.50
2022-10-17T03:13:28.718Z,1.55
2022-10-17T03:15:58.228Z,1.45
2022-10-17T03:18:26.747Z,1.65
2022-10-17T03:20:56.587Z,1.65
2022-10-17T03:23:25.276Z,1.50
2022-10-17T03:25:53.782Z,1.65
2022-10-17T03:28:22.112Z,1.90
2022-10-17T03:30:50.499Z,1.42
2022-10-17T03:33:18.893Z,1.80
2022-10-17T03:35:47.271Z,1.52
2022-10-17T03:38:17.335Z,1.63
2022-10-17T03:40:45.707Z,1.63
2022-10-17T03:43:14.103Z,2.00
2022-10-17T03:45:42.527Z,1.63
2022-10-17T03:48:10.861Z,1.70
2022-10-17T03:50:39.315Z,1.63
2022-10-17T03:53:07.660Z,1.40
2022-10-17T03:55:37.448Z,1.90
2022-10-17T03:58:05.798Z,1.92
2022-10-17T04:00:34.408Z,1.50
2022-10-17T04:03:02.875Z,1.95
2022-10-17T04:05:31.199Z,1.70
2022-10-17T04:08:02.456Z,1.58
2022-10-17T04:10:33.091Z,1.98
2022-10-17T04:13:02.959Z,2.28
2022-10-17T04:15:31.402Z,1.85
2022-10-17T04:17:59.850Z,1.85
2022-10-17T04:20:28.403Z,3.72
2022-10-17T04:22:56.782Z,2.10
2022-10-17T04:25:25.164Z,2.13
2022-10-17T04:27:53.817Z,1.83
2022-10-17T04:30:23.571Z,1.70
2022-10-17T04:32:51.960Z,1.85
2022-10-17T04:35:20.352Z,2.90
2022-10-17T04:37:49.099Z,3.33
2022-10-17T04:40:17.594Z,2.22
2022-10-17T04:42:46.001Z,2.10
2022-10-17T04:45:14.780Z,1.80
2022-10-17T04:47:44.551Z,2.00
2022-10-17T04:50:12.963Z,1.77
2022-10-17T04:52:41.267Z,2.03
2022-10-17T04:55:10.084Z,1.70
2022-10-17T04:57:38.495Z,1.70
2022-10-17T05:02:44.407Z,2.08
2022-10-17T05:05:12.723Z,3.60
2022-10-17T05:07:42.058Z,2.63
2022-10-17T05:10:11.565Z,1.70
2022-10-17T05:12:40.248Z,2.17
2022-10-17T05:15:10.075Z,2.13
2022-10-17T05:17:38.396Z,2.20
2022-10-17T05:20:09.932Z,2.03
2022-10-17T05:22:41.251Z,2.33
2022-10-17T05:25:10.755Z,2.10
2022-10-17T05:27:39.303Z,2.25
2022-10-17T05:30:09.435Z,3.22
2022-10-17T05:32:38.101Z,2.20
2022-10-17T05:35:08.910Z,2.25
2022-10-17T05:37:37.200Z,2.58
2022-10-17T05:40:06.007Z,2.38
2022-10-17T05:42:34.468Z,3.00
2022-10-17T05:45:03.132Z,3.38
2022-10-17T05:47:32.058Z,2.28
2022-10-17T05:50:00.695Z,2.33
2022-10-17T05:52:30.723Z,2.10
2022-10-17T05:54:59.356Z,1.90
2022-10-17T05:57:27.932Z,1.80
2022-10-17T05:59:56.306Z,1.90
2022-10-17T06:02:24.959Z,2.72
2022-10-17T06:04:53.500Z,6.15
2022-10-17T06:07:22.214Z,3.58
2022-10-17T06:09:52.408Z,1.70
2022-10-17T06:12:20.708Z,1.55
2022-10-17T06:14:49.046Z,1.80
2022-10-17T06:17:17.574Z,1.75
2022-10-17T06:19:46.036Z,2.15
2022-10-17T06:22:14.749Z,2.20
2022-10-17T06:24:43.715Z,2.03
2022-10-17T06:27:13.787Z,2.28
2022-10-17T06:29:42.298Z,2.00
2022-10-17T06:32:14.913Z,1.80
2022-10-17T06:34:43.733Z,1.88
2022-10-17T06:37:12.180Z,1.98
2022-10-17T06:39:40.581Z,2.10
2022-10-17T06:42:08.893Z,1.83
2022-10-17T06:44:40.161Z,2.10
2022-10-17T06:47:08.466Z,1.50
2022-10-17T06:49:36.742Z,3.00
2022-10-17T06:52:05.190Z,2.30
2022-10-17T06:54:33.988Z,1.85
2022-10-17T06:57:02.332Z,2.60
2022-10-17T06:59:30.711Z,2.00
2022-10-17T07:02:01.847Z,2.65
2022-10-17T07:04:30.340Z,2.33
2022-10-17T07:09:33.443Z,2.20
2022-10-17T07:12:02.070Z,2.00
2022-10-17T07:14:32.247Z,1.80
2022-10-17T07:17:02.407Z,1.73
2022-10-17T07:19:30.886Z,1.58
2022-10-17T07:21:59.311Z,1.80
2022-10-17T07:24:27.835Z,1.70
2022-10-17T07:26:56.219Z,1.90
2022-10-17T07:29:24.523Z,1.65
2022-10-17T07:31:53.275Z,1.80
2022-10-17T07:34:27.536Z,1.60
2022-10-17T07:36:55.975Z,1.70
2022-10-17T07:39:24.496Z,2.00
2022-10-17T07:41:53.076Z,1.77
2022-10-17T07:44:21.825Z,1.75
2022-10-17T07:46:50.176Z,1.80
2022-10-17T07:49:18.914Z,2.20
2022-10-17T07:51:50.143Z,2.10
2022-10-17T07:54:18.733Z,2.45
2022-10-17T07:56:50.757Z,2.60
2022-10-17T07:59:19.512Z,1.70
2022-10-17T08:01:48.158Z,1.55
2022-10-17T08:04:17.186Z,1.70
2022-10-17T08:06:45.875Z,1.63
2022-10-17T08:09:15.599Z,2.05
2022-10-17T08:11:44.880Z,1.85
2022-10-17T08:14:14.471Z,1.80
2022-10-17T08:16:42.787Z,2.00
2022-10-17T08:19:11.681Z,2.08
2022-10-17T08:21:41.628Z,1.75
2022-10-17T08:24:10.472Z,1.77
2022-10-17T08:26:43.380Z,1.45
2022-10-17T08:29:15.681Z,1.45
2022-10-17T08:31:47.767Z,2.30
2022-10-17T08:34:17.400Z,1.55
2022-10-17T08:36:45.808Z,1.70
2022-10-17T08:39:14.063Z,1.90
2022-10-17T08:41:54.780Z,3.92
2022-10-17T08:44:38.637Z,2.45
2022-10-17T08:49:47.954Z,1.63
2022-10-17T08:52:23.905Z,1.60
2022-10-17T08:54:52.758Z,1.85
2022-10-17T08:57:22.766Z,1.50
2022-10-17T08:59:53.315Z,1.35
2022-10-17T09:02:40.382Z,1.20
2022-10-17T09:05:36.048Z,1.45
2022-10-17T09:08:15.973Z,1.38
2022-10-17T09:10:53.955Z,1.27
2022-10-17T09:13:49.986Z,1.48
2022-10-17T09:16:39.531Z,1.30
2022-10-17T09:19:14.245Z,1.42
2022-10-17T09:21:47.503Z,1.30
2022-10-17T09:24:22.612Z,1.30
2022-10-17T09:26:53.004Z,1.55
2022-10-17T09:29:25.064Z,1.35
2022-10-17T09:32:03.027Z,1.40
2022-10-17T09:34:33.902Z,1.38
2022-10-17T09:37:03.705Z,1.30
2022-10-17T09:39:33.287Z,1.30
2022-10-17T09:42:02.984Z,1.40
2022-10-17T09:44:35.360Z,1.50
2022-10-17T09:47:30.207Z,1.40
2022-10-17T09:49:58.785Z,1.35
2022-10-17T09:52:31.030Z,1.15
2022-10-17T09:55:05.582Z,1.25
2022-10-17T09:57:55.441Z,1.30
2022-10-17T10:00:27.040Z,1.20
2022-10-17T10:03:11.040Z,1.33
2022-10-17T10:05:39.705Z,1.50
2022-10-17T10:08:16.745Z,2.75
2022-10-17T10:10:46.064Z,1.33
2022-10-17T10:13:28.066Z,1.83
2022-10-17T10:16:15.811Z,1.50
2022-10-17T10:18:46.448Z,1.88
2022-10-17T10:21:20.462Z,1.70
2022-10-17T10:24:07.923Z,1.30
2022-10-17T10:26:40.264Z,1.42
2022-10-17T10:29:23.314Z,1.60
2022-10-17T10:31:55.143Z,1.25
2022-10-17T10:34:26.047Z,1.50
2022-10-17T10:36:59.312Z,1.50
2022-10-17T10:39:44.191Z,1.52
2022-10-17T10:42:23.635Z,1.70
2022-10-17T10:44:53.447Z,1.40
2022-10-17T10:47:27.186Z,1.50
2022-10-17T10:50:17.148Z,1.60
2022-10-17T10:52:49.399Z,1.40
2022-10-17T10:55:25.436Z,1.48
2022-10-17T10:57:58.383Z,1.52
2022-10-17T11:00:29.874Z,1.13
2022-10-17T11:03:12.734Z,1.98
2022-10-17T11:05:46.323Z,1.42
2022-10-17T11:08:25.009Z,1.45
2022-10-17T11:11:13.868Z,1.27
2022-10-17T11:13:49.589Z,1.40
2022-10-17T11:16:30.830Z,1.30
2022-10-17T11:19:08.582Z,2.53
2022-10-17T11:21:45.169Z,1.55
2022-10-17T11:24:20.611Z,2.00
2022-10-17T11:26:56.991Z,1.40
2022-10-17T11:29:30.759Z,1.65
2022-10-17T11:32:03.435Z,1.65
2022-10-17T11:34:37.743Z,1.75
2022-10-17T11:37:14.035Z,1.50
2022-10-17T11:39:49.350Z,1.23
2022-10-17T11:42:22.975Z,1.10
2022-10-17T11:44:54.870Z,1.17
2022-10-17T11:47:34.565Z,1.20
2022-10-17T11:53:05.266Z,1.60
2022-10-17T11:55:34.575Z,1.50
2022-10-17T11:58:13.755Z,1.38
2022-10-17T12:00:54.553Z,1.48
2022-10-17T12:03:44.314Z,1.30
2022-10-17T12:06:19.740Z,1.38
2022-10-17T12:08:57.170Z,1.27
2022-10-17T12:11:41.005Z,1.30
2022-10-17T12:17:06.207Z,1.33
2022-10-17T12:19:36.553Z,3.17
2022-10-17T12:22:19.114Z,1.80
2022-10-17T12:24:56.279Z,1.55
2022-10-17T12:27:47.631Z,1.30
2022-10-17T12:30:25.152Z,1.35
2022-10-17T12:33:07.327Z,1.58
2022-10-17T12:35:38.854Z,1.02
2022-10-17T12:38:29.490Z,1.27
2022-10-17T12:41:03.227Z,1.50
2022-10-17T12:43:48.835Z,1.40
2022-10-17T12:46:47.083Z,1.70
2022-10-17T12:49:24.254Z,1.67
2022-10-17T12:52:29.835Z,1.42
2022-10-17T12:55:18.657Z,1.52
2022-10-17T12:57:55.669Z,1.45
2022-10-17T13:00:29.776Z,1.10
2022-10-17T13:03:14.299Z,1.42
2022-10-17T13:05:47.310Z,1.33
2022-10-17T13:08:20.995Z,1.55
2022-10-17T13:13:23.722Z,1.77
2022-10-17T13:15:54.042Z,1.30
2022-10-17T13:18:24.957Z,1.40
2022-10-17T13:21:02.047Z,1.20
2022-10-17T13:23:35.974Z,1.40
2022-10-17T13:26:09.440Z,3.38
2022-10-17T13:31:08.732Z,2.00
2022-10-17T13:33:42.558Z,0.90
2022-10-17T13:36:19.253Z,1.20
2022-10-17T13:38:48.715Z,1.25
2022-10-17T13:41:35.410Z,1.20
2022-10-17T13:44:12.167Z,1.23
2022-10-17T13:46:43.833Z,0.80
2022-10-17T13:49:18.932Z,1.10
2022-10-17T13:51:49.647Z,1.08
2022-10-17T13:54:40.452Z,1.17
2022-10-17T13:57:20.216Z,4.72
2022-10-17T13:59:50.810Z,9.90
2022-10-17T14:02:21.560Z,1.40
2022-10-17T14:05:19.709Z,1.27
2022-10-17T14:10:42.512Z,1.30
2022-10-17T14:13:22.407Z,1.17
2022-10-17T14:15:51.550Z,1.40
2022-10-17T14:18:22.383Z,1.45
2022-10-17T14:23:42.829Z,1.20
2022-10-17T14:26:15.431Z,1.40
2022-10-17T14:28:47.597Z,1.30
2022-10-17T14:31:27.040Z,1.35
2022-10-17T14:33:56.147Z,1.20
2022-10-17T14:36:34.516Z,1.70
2022-10-17T14:39:04.530Z,1.35
2022-10-17T14:41:44.156Z,1.40
2022-10-17T14:44:22.150Z,1.35
2022-10-17T14:46:54.257Z,1.27
2022-10-17T14:49:28.955Z,1.33
2022-10-17T14:52:25.685Z,1.30
2022-10-17T14:54:54.131Z,1.40
2022-10-17T14:57:27.256Z,3.85
2022-10-17T14:59:57.900Z,2.30
2022-10-17T15:02:27.415Z,8.82
2022-10-17T15:04:56.324Z,1.58
2022-10-17T15:07:25.122Z,1.73
2022-10-17T15:09:54.799Z,1.50
2022-10-17T15:12:25.282Z,1.90
2022-10-17T15:14:54.783Z,1.60
2022-10-17T15:17:27.980Z,1.27
2022-10-17T15:19:57.063Z,1.27
2022-10-17T15:22:25.855Z,1.50
2022-10-17T15:24:54.248Z,1.25
2022-10-17T15:27:24.180Z,1.60
2022-10-17T15:29:53.213Z,1.60
2022-10-17T15:32:21.740Z,1.45
2022-10-17T15:34:51.504Z,1.60
2022-10-17T15:37:22.618Z,1.38
2022-10-17T15:39:53.657Z,1.58
2022-10-17T15:42:23.575Z,1.50
2022-10-17T15:44:51.949Z,2.13
2022-10-17T15:47:26.879Z,1.20
2022-10-17T15:49:57.078Z,1.42
2022-10-17T15:52:25.690Z,1.40
2022-10-17T15:54:55.213Z,1.90
2022-10-17T15:57:27.387Z,1.60
2022-10-17T15:59:57.311Z,1.95
2022-10-17T16:02:25.848Z,2.00
2022-10-17T16:04:54.416Z,2.65
2022-10-17T16:07:24.147Z,2.30
2022-10-17T16:09:52.704Z,2.20
2022-10-17T16:12:27.018Z,2.00
2022-10-17T16:14:55.723Z,2.22
2022-10-17T16:17:24.291Z,2.03
2022-10-17T16:19:52.619Z,1.85
2022-10-17T16:22:26.634Z,3.40
2022-10-17T16:24:59.493Z,7.18
2022-10-17T16:27:27.931Z,3.70
2022-10-17T16:29:56.284Z,3.75
2022-10-17T16:32:27.149Z,2.50
2022-10-17T16:34:55.900Z,2.22
2022-10-17T16:37:25.675Z,2.00
2022-10-17T16:39:56.801Z,2.00
2022-10-17T16:42:26.673Z,2.20
2022-10-17T16:44:55.172Z,3.05
2022-10-17T16:47:23.964Z,3.25
2022-10-17T16:49:52.888Z,3.33
2022-10-17T16:52:21.580Z,3.83
2022-10-17T16:54:51.503Z,4.80
2022-10-17T16:57:19.937Z,4.72
2022-10-17T16:59:48.497Z,4.82
2022-10-17T17:02:21.191Z,4.40
2022-10-17T17:04:49.998Z,3.72
2022-10-17T17:07:19.795Z,3.72
2022-10-17T17:09:48.337Z,3.70
2022-10-17T17:12:18.094Z,3.67
2022-10-17T17:14:46.655Z,4.35
2022-10-17T17:17:24.575Z,4.35
2022-10-17T17:20:03.815Z,3.40
2022-10-17T17:22:32.265Z,4.15
2022-10-17T17:25:00.898Z,3.75
2022-10-17T17:27:32.033Z,4.15
2022-10-17T17:30:01.025Z,4.22
2022-10-17T17:32:29.305Z,3.75
2022-10-17T17:34:59.617Z,3.08
2022-10-17T17:37:28.422Z,3.78
2022-10-17T17:39:57.045Z,3.20
2022-10-17T17:42:25.768Z,3.42
2022-10-17T17:44:55.611Z,3.10
2022-10-17T17:47:23.960Z,3.00
2022-10-17T17:49:52.507Z,2.58
2022-10-17T17:52:20.980Z,2.17
2022-10-17T17:54:49.925Z,2.17
2022-10-17T17:57:18.672Z,2.15
2022-10-17T17:59:48.702Z,5.20
2022-10-17T18:02:18.829Z,3.42
2022-10-17T18:04:47.345Z,4.85
2022-10-17T18:07:15.855Z,3.60
2022-10-17T18:09:44.699Z,3.22
2022-10-17T18:12:14.982Z,2.45
2022-10-17T18:14:43.460Z,2.50
2022-10-17T18:17:11.816Z,2.30
2022-10-17T18:19:41.643Z,2.72
2022-10-17T18:22:10.051Z,2.53
2022-10-17T18:24:38.565Z,2.97
2022-10-17T18:27:07.080Z,2.30
2022-10-17T18:29:35.641Z,2.45
2022-10-17T18:32:04.373Z,2.35
2022-10-17T18:34:32.826Z,2.20
2022-10-17T18:37:02.802Z,2.03
2022-10-17T18:39:31.419Z,2.30
2022-10-17T18:41:59.841Z,2.30
2022-10-17T18:44:28.775Z,2.70
2022-10-17T18:47:03.046Z,2.97
2022-10-17T18:49:32.939Z,2.97
2022-10-17T18:52:03.230Z,2.40
2022-10-17T18:54:33.597Z,2.30
2022-10-17T18:57:02.355Z,2.17
2022-10-17T18:59:31.435Z,2.30
2022-10-17T19:01:59.958Z,2.45
2022-10-17T19:04:28.613Z,2.47
2022-10-17T19:06:57.034Z,2.70
2022-10-17T19:09:29.974Z,2.10
2022-10-17T19:11:58.568Z,2.40
2022-10-17T19:14:28.824Z,2.17
2022-10-17T19:17:00.176Z,2.33
2022-10-17T19:19:30.221Z,2.33
2022-10-17T19:22:01.033Z,2.17
2022-10-17T19:24:32.622Z,2.28
2022-10-17T19:27:03.747Z,1.95
2022-10-17T19:29:34.658Z,2.63
2022-10-17T19:32:10.188Z,2.40
2022-10-17T19:34:44.142Z,2.72
2022-10-17T19:37:14.085Z,2.72
2022-10-17T19:39:45.708Z,4.75
2022-10-17T19:42:15.651Z,4.90
2022-10-17T19:44:45.523Z,3.38
2022-10-17T19:47:15.278Z,3.40
2022-10-17T19:49:49.732Z,3.28
2022-10-17T19:52:19.982Z,3.03
2022-10-17T19:54:51.891Z,2.67
2022-10-17T19:57:22.390Z,2.17
2022-10-17T19:59:53.738Z,2.33
2022-10-17T20:05:13.971Z,2.53
2022-10-17T20:07:46.527Z,2.72
2022-10-17T20:10:19.089Z,2.33
2022-10-17T20:12:49.658Z,2.50
2022-10-17T20:15:20.842Z,2.50
2022-10-17T20:17:50.812Z,2.40
2022-10-17T20:20:20.966Z,2.35
2022-10-17T20:22:50.734Z,2.20
2022-10-17T20:25:22.309Z,2.30
2022-10-17T20:27:52.079Z,2.67
2022-10-17T20:30:24.755Z,2.55
2022-10-17T20:32:55.628Z,2.65
2022-10-17T20:35:24.498Z,2.63
2022-10-17T20:37:53.291Z,2.67
2022-10-17T20:40:34.592Z,2.63
2022-10-17T20:43:04.100Z,2.55
2022-10-17T20:45:45.090Z,2.83
2022-10-17T20:48:20.271Z,2.55
2022-10-17T20:50:49.023Z,2.50
2022-10-17T20:53:35.912Z,2.83
2022-10-17T20:56:08.546Z,2.45
2022-10-17T20:58:37.456Z,2.70
2022-10-17T21:01:10.039Z,3.13
2022-10-17T21:03:42.401Z,2.58
2022-10-17T21:06:14.032Z,3.50
2022-10-17T21:08:42.455Z,2.58
2022-10-17T21:11:14.962Z,2.33
2022-10-17T21:13:43.630Z,3.03
2022-10-17T21:16:13.287Z,3.00
2022-10-17T21:18:42.540Z,3.08
2022-10-17T21:21:15.815Z,2.50
2022-10-17T21:23:46.607Z,2.40
2022-10-17T21:26:17.567Z,2.60
2022-10-17T21:28:48.761Z,2.55
2022-10-17T21:31:19.215Z,2.55
2022-10-17T21:33:49.511Z,2.45
2022-10-17T21:36:19.149Z,2.40
2022-10-17T21:38:49.127Z,2.55
2022-10-17T21:41:20.888Z,2.30
2022-10-17T21:43:53.387Z,2.10
2022-10-17T21:46:22.313Z,2.47
2022-10-17T21:48:51.994Z,2.58
2022-10-17T21:51:23.095Z,2.20
2022-10-17T21:53:52.298Z,2.90
2022-10-17T21:56:24.870Z,2.55
2022-10-17T21:58:53.345Z,2.35
2022-10-17T22:01:25.249Z,2.40
2022-10-17T22:03:55.697Z,2.20
2022-10-17T22:06:39.227Z,3.05
2022-10-17T22:09:11.410Z,2.30
2022-10-17T22:11:41.481Z,2.45
2022-10-17T22:14:13.725Z,2.05
2022-10-17T22:16:44.411Z,2.38
2022-10-17T22:19:14.064Z,2.30
2022-10-17T22:21:42.738Z,2.05
2022-10-17T22:24:15.263Z,2.65
2022-10-17T22:26:45.779Z,2.50
2022-10-17T22:29:14.795Z,2.60
2022-10-17T22:31:43.363Z,2.42
2022-10-17T22:34:13.589Z,2.85
2022-10-17T22:36:42.348Z,2.70
2022-10-17T22:39:11.596Z,2.65
2022-10-17T22:41:40.290Z,2.45
2022-10-17T22:44:10.278Z,2.42
2022-10-17T22:46:38.594Z,2.63
2022-10-17T22:49:06.976Z,2.50
2022-10-17T22:51:35.595Z,2.40
2022-10-17T22:54:03.947Z,2.60
2022-10-17T22:56:32.539Z,2.97
2022-10-17T22:59:00.891Z,2.60
2022-10-17T23:01:30.902Z,2.67
2022-10-17T23:03:59.799Z,3.22
2022-10-17T23:06:28.223Z,2.40
2022-10-17T23:08:56.758Z,2.80
2022-10-17T23:11:26.472Z,2.60
2022-10-17T23:13:54.836Z,2.83
2022-10-17T23:16:23.735Z,3.17
2022-10-17T23:18:53.511Z,2.58
2022-10-17T23:21:21.826Z,2.72
2022-10-17T23:23:50.159Z,2.47
2022-10-17T23:26:21.541Z,2.70
2022-10-17T23:28:51.146Z,2.78
2022-10-17T23:31:21.195Z,2.80
2022-10-17T23:33:51.037Z,2.80
2022-10-17T23:36:21.877Z,2.70
2022-10-17T23:38:52.651Z,2.50
2022-10-17T23:41:23.575Z,2.58
2022-10-17T23:43:52.406Z,2.85
2022-10-17T23:46:20.951Z,2.50
2022-10-17T23:48:49.248Z,2.40
2022-10-17T23:51:17.782Z,2.60
2022-10-17T23:53:47.892Z,2.38
2022-10-17T23:56:16.477Z,2.10
2022-10-17T23:58:44.821Z,2.67
